< < Back
Terminal Aerodrome Forecast


Current Version              Previous Versions:   1  2  3  4  5  6  7  8  9  

Terminal Aerodrome Forecast

597
FTUS44 KMRX 300257 AAA
TAFTYS
TAF AMD
KTYS 300257Z 3003/3024 35003KT 6SM BR SCT150
     FM300500 00000KT 5SM BR SCT250
     FM300900 32002KT 3SM BR SCT250
     FM301200 00000KT 2SM BR BKN050
     FM301600 34007KT P6SM SCT040=



Latest METAR

456
SAUS80 KWBC 301800 RRB
MTRTYS
METAR KTYS 301753Z VRB03KT 10SM SCT045 SCT250 29/17 A3001 RMK AO2 SLP150
T02890172 10294 20183 58015


USA.gov is the U.S. government's official web portal to all federal, state and local government web resources and services.